Wisby Argan — LAFB7 — position and weather

sailwx.info

Track history (hours):
 
Tides and Currents Weather Stations Pressure Air Temp Water Temp Dewpoint Dewpoint Depression Visibility Wind Speed Wind Dir Waves Ship Positions

Wisby Argan

Last reported at 2017-Sep-19 15:18 UTC. Time now 2017-Sep-19 15:28 UTC.
Position N 36°00' W 005°27'.

Length 100 m; draft 5.3 m.

Type: Tanker. MMSI: 259746000.

Date/timePositionNaut miles runAvg speedWind from/ knotsBaromVisibWave heightAir tempDewpointWater temp
2017-Sep-19 15:18N 36°00' W 005°27'4 7.8
2017-Sep-19 14:44N 36°03' W 005°24'2 8.3
2017-Sep-19 14:29N 36°05' W 005°23'5 0.1
2017-Sep-17 16:16N 36°10' W 005°26'1 4.9
2017-Sep-17 15:57N 36°09' W 005°24'3 7.3
2017-Sep-17 15:30N 36°06' W 005°23'4 8.6
2017-Sep-17 15:00N 36°02' W 005°22'712.6
2017-Sep-17 14:29N 35°57' W 005°28'33910.0
2017-Sep-16 04:33N 32°05' W 010°26'33 7.8
2017-Sep-16 00:15N 31°37' W 010°46'2 7.3
2017-Sep-15 23:59N 31°35' W 010°47'13 7.1
2017-Sep-15 22:14N 31°24' W 010°54'2 6.8
2017-Sep-15 21:53N 31°22' W 010°56'4 7.3
2017-Sep-15 21:23N 31°19' W 010°58'3 7.2
2017-Sep-15 20:57N 31°16' W 010°60'3 7.0
2017-Sep-15 20:28N 31°14' W 011°02'4 7.5
2017-Sep-15 19:55N 31°10' W 011°05'4 7.2
2017-Sep-15 19:25N 31°07' W 011°07'3 7.3
2017-Sep-15 19:00N 31°04' W 011°09'5 8.1
2017-Sep-15 18:22N 31°00' W 011°12'3 8.0
2017-Sep-15 18:00N 30°58' W 011°13'4 8.0
2017-Sep-15 17:30N 30°54' W 011°15'4 8.0
2017-Sep-15 16:57N 30°50' W 011°18'4 7.6
2017-Sep-15 16:29N 30°47' W 011°20'4 8.1
2017-Sep-15 16:00N 30°44' W 011°22'6 8.4
2017-Sep-15 15:20N 30°39' W 011°26'3 8.4
2017-Sep-15 15:00N 30°37' W 011°27'5 8.4
2017-Sep-15 14:28N 30°33' W 011°30'4 8.7
2017-Sep-15 14:00N 30°29' W 011°33'4 8.7
2017-Sep-15 13:30N 30°26' W 011°35'4 8.7
2017-Sep-15 13:00N 30°22' W 011°38'4 8.9
2017-Sep-15 12:30N 30°18' W 011°40'4 8.5
2017-Sep-15 11:59N 30°14' W 011°43'4 8.5
2017-Sep-15 11:30N 30°11' W 011°46'11 8.3
2017-Sep-15 10:11N 30°01' W 011°52'2 8.2
2017-Sep-15 10:00N 30°00' W 011°53'21 8.3
2017-Sep-15 07:31N 29°42' W 012°05'3 9.0
2017-Sep-15 07:14N 29°40' W 012°06'2 9.0
2017-Sep-15 07:00N 29°38' W 012°08'5 8.9
2017-Sep-15 06:30N 29°34' W 012°10'5 9.0
2017-Sep-15 06:00N 29°30' W 012°13'5 9.0
2017-Sep-15 05:29N 29°26' W 012°16'5 9.2
2017-Sep-15 04:59N 29°22' W 012°18'4 9.0
2017-Sep-15 04:30N 29°19' W 012°21'5 9.1
2017-Sep-15 04:00N 29°15' W 012°23'4 8.8
2017-Sep-15 03:30N 29°11' W 012°26'5 8.9
2017-Sep-15 02:56N 29°07' W 012°29'4 9.0
2017-Sep-15 02:28N 29°03' W 012°32'4 9.0
2017-Sep-15 02:00N 28°59' W 012°34'5 8.9
2017-Sep-15 01:30N 28°56' W 012°36'5 9.2
2017-Sep-15 00:57N 28°51' W 012°40'4 9.6
2017-Sep-15 00:30N 28°48' W 012°42'5 9.1
2017-Sep-15 00:00N 28°44' W 012°45'5 9.1
2017-Sep-14 23:29N 28°40' W 012°47'5 9.7
2017-Sep-14 22:58N 28°35' W 012°50'5 9.9
2017-Sep-14 22:30N 28°31' W 012°53'5 9.4
2017-Sep-14 21:59N 28°27' W 012°56'5 9.6
2017-Sep-14 21:29N 28°23' W 012°59'5 9.7
2017-Sep-14 21:00N 28°19' W 013°01'5 9.5
2017-Sep-14 20:30N 28°15' W 013°04'5 9.3
2017-Sep-14 19:59N 28°11' W 013°07'5 9.5
2017-Sep-14 19:30N 28°07' W 013°10'5 9.7
2017-Sep-14 19:00N 28°03' W 013°12'510.0
2017-Sep-14 18:30N 27°58' W 013°15'510.1
2017-Sep-14 18:00N 27°54' W 013°18'510.1
2017-Sep-14 17:30N 27°50' W 013°21'510.1
2017-Sep-14 17:00N 27°45' W 013°24'5 9.9
2017-Sep-14 16:30N 27°41' W 013°27'5 9.9
2017-Sep-14 16:00N 27°36' W 013°29'510.2
2017-Sep-14 15:30N 27°31' W 013°29'510.4
2017-Sep-14 15:00N 27°26' W 013°29'510.3
2017-Sep-14 14:30N 27°21' W 013°29'510.2
2017-Sep-14 14:00N 27°16' W 013°28'510.3
2017-Sep-14 13:30N 27°11' W 013°28'510.2
2017-Sep-14 13:00N 27°06' W 013°27'1 0.1
2017-Sep-13 22:59N 27°06' W 013°26'0 0.0
2017-Sep-13 21:35N 27°06' W 013°26'0 0.0
2017-Sep-13 17:41N 27°06' W 013°26'0 0.2
2017-Sep-13 17:30N 27°06' W 013°26'1 2.4
2017-Sep-13 16:55N 27°05' W 013°27'1 0.7
2017-Sep-13 14:58N 27°06' W 013°28'0 0.0
2017-Sep-13 14:22N 27°06' W 013°28'2 0.3
2017-Sep-13 04:42N 27°08' W 013°28'310.0
2017-Sep-13 04:23N 27°12' W 013°29'710.2
2017-Sep-13 03:41N 27°19' W 013°29'2 9.3
2017-Sep-13 03:31N 27°20' W 013°28'2510.0
2017-Sep-13 01:03N 27°45' W 013°24'110.9
2017-Sep-13 00:55N 27°46' W 013°23'910.8
2017-Sep-13 00:07N 27°53' W 013°17'210.8
2017-Sep-12 23:58N 27°54' W 013°16'219 9.4
2017-Sep-12 00:38N 30°55' W 010°54'211.7
2017-Sep-12 00:30N 30°56' W 010°53'1311.7
2017-Sep-11 23:24N 31°07' W 010°45'1211.5
2017-Sep-11 22:23N 31°16' W 010°37'510.8
2017-Sep-11 21:54N 31°21' W 010°34'1511.1
2017-Sep-11 20:33N 31°33' W 010°24'2311.2
2017-Sep-11 18:29N 31°53' W 010°08'  
Track history (hours):
 
Tides and Currents Weather Stations Pressure Air Temp Water Temp Dewpoint Dewpoint Depression Visibility Wind Speed Wind Dir Waves Ship Positions

Wisby Argan

Last reported at 2017-Sep-19 15:18 UTC. Time now 2017-Sep-19 15:28 UTC.
Position N 36°00' W 005°27'.

Length 100 m; draft 5.3 m.

Type: Tanker. MMSI: 259746000.

Date/timePositionNaut miles runAvg speedWind from/ knotsBaromVisibWave heightAir tempDewpointWater temp
2017-Sep-19 15:18N 36°00' W 005°27'4 7.8
2017-Sep-19 14:44N 36°03' W 005°24'2 8.3
2017-Sep-19 14:29N 36°05' W 005°23'5 0.1
2017-Sep-17 16:16N 36°10' W 005°26'1 4.9
2017-Sep-17 15:57N 36°09' W 005°24'3 7.3
2017-Sep-17 15:30N 36°06' W 005°23'4 8.6
2017-Sep-17 15:00N 36°02' W 005°22'712.6
2017-Sep-17 14:29N 35°57' W 005°28'33910.0
2017-Sep-16 04:33N 32°05' W 010°26'33 7.8
2017-Sep-16 00:15N 31°37' W 010°46'2 7.3
2017-Sep-15 23:59N 31°35' W 010°47'13 7.1
2017-Sep-15 22:14N 31°24' W 010°54'2 6.8
2017-Sep-15 21:53N 31°22' W 010°56'4 7.3
2017-Sep-15 21:23N 31°19' W 010°58'3 7.2
2017-Sep-15 20:57N 31°16' W 010°60'3 7.0
2017-Sep-15 20:28N 31°14' W 011°02'4 7.5
2017-Sep-15 19:55N 31°10' W 011°05'4 7.2
2017-Sep-15 19:25N 31°07' W 011°07'3 7.3
2017-Sep-15 19:00N 31°04' W 011°09'5 8.1
2017-Sep-15 18:22N 31°00' W 011°12'3 8.0
2017-Sep-15 18:00N 30°58' W 011°13'4 8.0
2017-Sep-15 17:30N 30°54' W 011°15'4 8.0
2017-Sep-15 16:57N 30°50' W 011°18'4 7.6
2017-Sep-15 16:29N 30°47' W 011°20'4 8.1
2017-Sep-15 16:00N 30°44' W 011°22'6 8.4
2017-Sep-15 15:20N 30°39' W 011°26'3 8.4
2017-Sep-15 15:00N 30°37' W 011°27'5 8.4
2017-Sep-15 14:28N 30°33' W 011°30'4 8.7
2017-Sep-15 14:00N 30°29' W 011°33'4 8.7
2017-Sep-15 13:30N 30°26' W 011°35'4 8.7
2017-Sep-15 13:00N 30°22' W 011°38'4 8.9
2017-Sep-15 12:30N 30°18' W 011°40'4 8.5
2017-Sep-15 11:59N 30°14' W 011°43'4 8.5
2017-Sep-15 11:30N 30°11' W 011°46'11 8.3
2017-Sep-15 10:11N 30°01' W 011°52'2 8.2
2017-Sep-15 10:00N 30°00' W 011°53'21 8.3
2017-Sep-15 07:31N 29°42' W 012°05'3 9.0
2017-Sep-15 07:14N 29°40' W 012°06'2 9.0
2017-Sep-15 07:00N 29°38' W 012°08'5 8.9
2017-Sep-15 06:30N 29°34' W 012°10'5 9.0
2017-Sep-15 06:00N 29°30' W 012°13'5 9.0
2017-Sep-15 05:29N 29°26' W 012°16'5 9.2
2017-Sep-15 04:59N 29°22' W 012°18'4 9.0
2017-Sep-15 04:30N 29°19' W 012°21'5 9.1
2017-Sep-15 04:00N 29°15' W 012°23'4 8.8
2017-Sep-15 03:30N 29°11' W 012°26'5 8.9
2017-Sep-15 02:56N 29°07' W 012°29'4 9.0
2017-Sep-15 02:28N 29°03' W 012°32'4 9.0
2017-Sep-15 02:00N 28°59' W 012°34'5 8.9
2017-Sep-15 01:30N 28°56' W 012°36'5 9.2
2017-Sep-15 00:57N 28°51' W 012°40'4 9.6
2017-Sep-15 00:30N 28°48' W 012°42'5 9.1
2017-Sep-15 00:00N 28°44' W 012°45'5 9.1
2017-Sep-14 23:29N 28°40' W 012°47'5 9.7
2017-Sep-14 22:58N 28°35' W 012°50'5 9.9
2017-Sep-14 22:30N 28°31' W 012°53'5 9.4
2017-Sep-14 21:59N 28°27' W 012°56'5 9.6
2017-Sep-14 21:29N 28°23' W 012°59'5 9.7
2017-Sep-14 21:00N 28°19' W 013°01'5 9.5
2017-Sep-14 20:30N 28°15' W 013°04'5 9.3
2017-Sep-14 19:59N 28°11' W 013°07'5 9.5
2017-Sep-14 19:30N 28°07' W 013°10'5 9.7
2017-Sep-14 19:00N 28°03' W 013°12'510.0
2017-Sep-14 18:30N 27°58' W 013°15'510.1
2017-Sep-14 18:00N 27°54' W 013°18'510.1
2017-Sep-14 17:30N 27°50' W 013°21'510.1
2017-Sep-14 17:00N 27°45' W 013°24'5 9.9
2017-Sep-14 16:30N 27°41' W 013°27'5 9.9
2017-Sep-14 16:00N 27°36' W 013°29'510.2
2017-Sep-14 15:30N 27°31' W 013°29'510.4
2017-Sep-14 15:00N 27°26' W 013°29'510.3
2017-Sep-14 14:30N 27°21' W 013°29'510.2
2017-Sep-14 14:00N 27°16' W 013°28'510.3
2017-Sep-14 13:30N 27°11' W 013°28'510.2
2017-Sep-14 13:00N 27°06' W 013°27'1 0.1
2017-Sep-13 22:59N 27°06' W 013°26'0 0.0
2017-Sep-13 21:35N 27°06' W 013°26'0 0.0
2017-Sep-13 17:41N 27°06' W 013°26'0 0.2
2017-Sep-13 17:30N 27°06' W 013°26'1 2.4
2017-Sep-13 16:55N 27°05' W 013°27'1 0.7
2017-Sep-13 14:58N 27°06' W 013°28'0 0.0
2017-Sep-13 14:22N 27°06' W 013°28'2 0.3
2017-Sep-13 04:42N 27°08' W 013°28'310.0
2017-Sep-13 04:23N 27°12' W 013°29'710.2
2017-Sep-13 03:41N 27°19' W 013°29'2 9.3
2017-Sep-13 03:31N 27°20' W 013°28'2510.0
2017-Sep-13 01:03N 27°45' W 013°24'110.9
2017-Sep-13 00:55N 27°46' W 013°23'910.8
2017-Sep-13 00:07N 27°53' W 013°17'210.8
2017-Sep-12 23:58N 27°54' W 013°16'219 9.4
2017-Sep-12 00:38N 30°55' W 010°54'211.7
2017-Sep-12 00:30N 30°56' W 010°53'1311.7
2017-Sep-11 23:24N 31°07' W 010°45'1211.5
2017-Sep-11 22:23N 31°16' W 010°37'510.8
2017-Sep-11 21:54N 31°21' W 010°34'1511.1
2017-Sep-11 20:33N 31°33' W 010°24'2311.2
2017-Sep-11 18:29N 31°53' W 010°08'  

Dump ship's entire track history